createdAt,value
2023-03-13T00:01:43.921Z,7.80
2023-03-13T00:04:13.633Z,6.10
2023-03-13T00:06:41.199Z,4.80
2023-03-13T00:09:08.720Z,6.50
2023-03-13T00:11:36.214Z,6.70
2023-03-13T00:14:03.931Z,5.40
2023-03-13T00:16:31.721Z,5.60
2023-03-13T00:19:00.171Z,4.60
2023-03-13T00:21:28.025Z,7.70
2023-03-13T00:23:56.159Z,7.10
2023-03-13T00:26:24.145Z,7.00
2023-03-13T00:28:51.762Z,7.30
2023-03-13T00:31:20.244Z,9.00
2023-03-13T00:33:48.289Z,8.80
2023-03-13T00:36:16.377Z,10.50
2023-03-13T00:38:45.105Z,6.20
2023-03-13T00:41:12.678Z,7.40
2023-03-13T00:43:40.228Z,5.90
2023-03-13T00:46:07.879Z,7.50
2023-03-13T00:48:35.559Z,6.50
2023-03-13T00:51:03.188Z,6.70
2023-03-13T00:53:31.652Z,4.90
2023-03-13T00:55:59.224Z,7.00
2023-03-13T00:58:26.739Z,7.90
2023-03-13T01:00:54.431Z,7.30
2023-03-13T01:03:22.393Z,6.60
2023-03-13T01:05:50.059Z,6.50
2023-03-13T01:08:17.603Z,6.60
2023-03-13T01:10:45.178Z,4.60
2023-03-13T01:13:12.897Z,5.80
2023-03-13T01:15:40.447Z,6.70
2023-03-13T01:18:08.194Z,5.20
2023-03-13T01:20:35.684Z,7.90
2023-03-13T01:23:03.258Z,8.40
2023-03-13T01:25:30.927Z,7.30
2023-03-13T01:27:58.427Z,6.60
2023-03-13T01:30:26.023Z,6.50
2023-03-13T01:32:53.782Z,6.50
2023-03-13T01:35:21.358Z,5.70
2023-03-13T01:37:49.528Z,7.30
2023-03-13T01:40:17.156Z,7.40
2023-03-13T01:42:44.620Z,7.20
2023-03-13T01:45:12.435Z,6.40
2023-03-13T01:47:40.120Z,6.90
2023-03-13T01:50:08.301Z,6.30
2023-03-13T01:52:35.849Z,6.70
2023-03-13T01:55:03.458Z,6.00
2023-03-13T01:57:33.665Z,8.00
2023-03-13T02:00:01.666Z,7.50
2023-03-13T02:02:29.224Z,7.50
2023-03-13T02:04:57.077Z,7.00
2023-03-13T02:07:24.603Z,8.30
2023-03-13T02:09:52.194Z,8.30
2023-03-13T02:12:19.814Z,7.00
2023-03-13T02:14:47.336Z,6.90
2023-03-13T02:17:14.908Z,5.80
2023-03-13T02:19:42.910Z,5.90
2023-03-13T02:22:10.964Z,5.90
2023-03-13T02:24:38.635Z,5.20
2023-03-13T02:27:06.150Z,5.90
2023-03-13T02:29:33.742Z,5.30
2023-03-13T02:32:01.549Z,6.40
2023-03-13T02:34:29.073Z,5.90
2023-03-13T02:36:56.617Z,6.90
2023-03-13T02:39:24.331Z,5.70
2023-03-13T02:41:51.863Z,5.40
2023-03-13T02:44:19.432Z,6.30
2023-03-13T02:46:47.029Z,5.80
2023-03-13T02:49:14.675Z,6.00
2023-03-13T02:51:42.289Z,6.70
2023-03-13T02:54:09.978Z,7.10
2023-03-13T02:56:37.533Z,6.90
2023-03-13T02:59:05.285Z,7.30
2023-03-13T03:01:33.013Z,7.20
2023-03-13T03:04:00.712Z,8.30
2023-03-13T03:06:28.863Z,6.90
2023-03-13T03:08:56.362Z,6.40
2023-03-13T03:11:24.026Z,6.30
2023-03-13T03:13:51.679Z,7.70
2023-03-13T03:16:20.837Z,7.50
2023-03-13T03:18:48.615Z,6.90
2023-03-13T03:21:16.164Z,5.60
2023-03-13T03:23:43.672Z,5.50
2023-03-13T03:26:11.335Z,6.80
2023-03-13T03:28:39.097Z,5.50
2023-03-13T03:31:06.664Z,8.60
2023-03-13T03:33:35.844Z,6.20
2023-03-13T03:36:03.648Z,6.50
2023-03-13T03:38:31.296Z,7.10
2023-03-13T03:40:58.868Z,7.90
2023-03-13T03:43:26.475Z,7.50
2023-03-13T03:45:54.179Z,7.50
2023-03-13T03:48:21.671Z,9.20
2023-03-13T03:50:49.281Z,7.30
2023-03-13T03:53:16.854Z,6.70
2023-03-13T03:55:46.897Z,7.30
2023-03-13T03:58:15.443Z,6.20
2023-03-13T04:00:43.170Z,6.80
2023-03-13T04:03:10.808Z,6.90
2023-03-13T04:05:38.801Z,7.70
2023-03-13T04:08:06.306Z,5.70
2023-03-13T04:10:33.831Z,7.40
2023-03-13T04:13:01.834Z,8.40
2023-03-13T04:15:29.431Z,7.70
2023-03-13T04:17:57.429Z,6.80
2023-03-13T04:20:24.986Z,8.20
2023-03-13T04:22:52.607Z,9.80
2023-03-13T04:25:20.211Z,8.90
2023-03-13T04:27:47.783Z,8.10
2023-03-13T04:30:18.523Z,10.90
2023-03-13T04:32:46.516Z,10.00
2023-03-13T04:35:14.271Z,11.90
2023-03-13T04:37:42.139Z,10.20
2023-03-13T04:40:09.829Z,8.00
2023-03-13T04:42:37.630Z,9.40
2023-03-13T04:45:05.107Z,7.40
2023-03-13T04:47:32.624Z,8.40
2023-03-13T04:50:00.511Z,7.30
2023-03-13T04:52:28.061Z,8.50
2023-03-13T04:54:55.531Z,7.70
2023-03-13T04:57:23.408Z,9.30
2023-03-13T04:59:50.956Z,8.10
2023-03-13T05:02:18.606Z,13.30
2023-03-13T05:04:51.082Z,10.50
2023-03-13T05:07:19.857Z,11.40
2023-03-13T05:09:47.474Z,11.00
2023-03-13T05:12:15.073Z,11.20
2023-03-13T05:14:42.618Z,9.30
2023-03-13T05:17:11.245Z,12.20
2023-03-13T05:19:39.015Z,9.30
2023-03-13T05:22:06.514Z,8.50
2023-03-13T05:24:33.986Z,12.70
2023-03-13T05:27:02.563Z,8.20
2023-03-13T05:29:30.129Z,8.70
2023-03-13T05:31:59.038Z,9.60
2023-03-13T05:34:29.263Z,8.10
2023-03-13T05:36:56.868Z,7.80
2023-03-13T05:39:25.978Z,8.40
2023-03-13T05:41:53.806Z,8.30
2023-03-13T05:44:21.390Z,9.70
2023-03-13T05:46:49.544Z,7.30
2023-03-13T05:49:25.465Z,7.50
2023-03-13T05:51:53.171Z,10.40
2023-03-13T05:54:20.857Z,14.30
2023-03-13T05:56:50.558Z,9.80
2023-03-13T05:59:18.050Z,11.50
2023-03-13T06:01:45.680Z,11.60
2023-03-13T06:04:13.510Z,10.10
2023-03-13T06:06:41.357Z,11.80
2023-03-13T06:09:11.036Z,11.30
2023-03-13T06:11:38.967Z,11.50
2023-03-13T06:14:06.448Z,12.90
2023-03-13T06:16:33.987Z,12.20
2023-03-13T06:19:02.363Z,11.70
2023-03-13T06:21:30.278Z,10.40
2023-03-13T06:23:57.889Z,10.10
2023-03-13T06:26:26.421Z,12.40
2023-03-13T06:28:57.924Z,12.30
2023-03-13T06:31:25.476Z,9.30
2023-03-13T06:33:53.094Z,9.50
2023-03-13T06:36:20.638Z,10.30
2023-03-13T06:38:48.210Z,8.30
2023-03-13T06:41:15.912Z,8.90
2023-03-13T06:43:43.453Z,8.20
2023-03-13T06:46:10.989Z,8.70
2023-03-13T06:48:41.036Z,10.00
2023-03-13T06:51:09.259Z,15.00
2023-03-13T06:53:36.911Z,13.40
2023-03-13T06:56:04.470Z,10.20
2023-03-13T06:58:33.061Z,9.00
2023-03-13T07:01:03.009Z,11.40
2023-03-13T07:03:30.627Z,12.10
2023-03-13T07:05:58.274Z,12.20
2023-03-13T07:08:25.807Z,13.10
2023-03-13T07:10:53.464Z,9.00
2023-03-13T07:13:22.302Z,7.90
2023-03-13T07:15:49.918Z,8.20
2023-03-13T07:18:17.540Z,7.10
2023-03-13T07:20:45.393Z,12.90
2023-03-13T07:23:12.931Z,10.40
2023-03-13T07:25:40.466Z,9.90
2023-03-13T07:28:08.095Z,12.00
2023-03-13T07:30:35.666Z,19.70
2023-03-13T07:33:03.565Z,22.40
2023-03-13T07:35:31.383Z,26.40
2023-03-13T07:37:58.915Z,18.80
2023-03-13T07:40:26.476Z,14.40
2023-03-13T07:42:54.078Z,13.30
2023-03-13T07:45:21.600Z,16.20
2023-03-13T07:47:49.230Z,13.20
2023-03-13T07:50:16.994Z,14.50
2023-03-13T07:52:44.642Z,13.50
2023-03-13T07:55:12.463Z,14.40
2023-03-13T07:57:40.114Z,7.60
2023-03-13T08:00:11.446Z,10.20
2023-03-13T08:02:39.106Z,10.50
2023-03-13T08:05:06.905Z,7.60
2023-03-13T08:07:34.954Z,8.20
2023-03-13T08:10:02.486Z,7.60
2023-03-13T08:12:30.190Z,8.30
2023-03-13T08:14:57.964Z,10.90
2023-03-13T08:17:25.522Z,9.60
2023-03-13T08:19:53.041Z,10.90
2023-03-13T08:22:20.527Z,9.30
2023-03-13T08:24:48.152Z,7.60
2023-03-13T08:27:15.773Z,8.30
2023-03-13T08:29:43.380Z,9.20
2023-03-13T08:32:11.180Z,9.40
2023-03-13T08:34:39.018Z,10.30
2023-03-13T08:37:06.543Z,7.70
2023-03-13T08:39:34.201Z,8.90
2023-03-13T08:42:02.609Z,13.20
2023-03-13T08:44:30.329Z,14.10
2023-03-13T08:46:59.994Z,13.40
2023-03-13T08:49:27.531Z,11.30
2023-03-13T08:51:56.377Z,9.20
2023-03-13T08:54:23.984Z,8.50
2023-03-13T08:56:51.552Z,9.30
2023-03-13T08:59:19.412Z,6.10
2023-03-13T09:01:47.366Z,6.40
2023-03-13T09:04:15.182Z,7.30
2023-03-13T09:06:42.939Z,7.20
2023-03-13T09:09:10.754Z,6.90
2023-03-13T09:11:39.556Z,6.60
2023-03-13T09:14:08.038Z,6.10
2023-03-13T09:16:35.673Z,5.90
2023-03-13T09:19:04.148Z,7.40
2023-03-13T09:21:31.617Z,9.80
2023-03-13T09:23:59.205Z,5.70
2023-03-13T09:26:27.825Z,6.00
2023-03-13T09:28:55.393Z,7.30
2023-03-13T09:31:22.996Z,7.90
2023-03-13T09:33:50.651Z,8.70
2023-03-13T09:36:20.827Z,6.30
2023-03-13T09:38:51.541Z,7.00
2023-03-13T09:41:19.342Z,10.20
2023-03-13T09:43:46.825Z,5.40
2023-03-13T09:46:14.470Z,8.20
2023-03-13T09:48:45.085Z,7.50
2023-03-13T09:51:13.035Z,6.30
2023-03-13T09:53:40.706Z,8.30
2023-03-13T09:56:08.484Z,9.30
2023-03-13T09:58:35.996Z,3.90
2023-03-13T10:01:03.565Z,8.00
2023-03-13T10:03:31.310Z,5.40
2023-03-13T10:05:58.923Z,5.80
2023-03-13T10:08:26.619Z,6.90
2023-03-13T10:10:54.366Z,8.10
2023-03-13T10:13:21.916Z,5.00
2023-03-13T10:15:49.532Z,8.40
2023-03-13T10:18:17.134Z,5.00
2023-03-13T10:20:45.692Z,4.30
2023-03-13T10:23:13.437Z,7.00
2023-03-13T10:25:41.207Z,4.40
2023-03-13T10:28:08.804Z,8.00
2023-03-13T10:30:36.474Z,5.40
2023-03-13T10:33:07.226Z,5.40
2023-03-13T10:35:35.028Z,7.40
2023-03-13T10:38:02.813Z,4.50
2023-03-13T10:40:30.862Z,4.60
2023-03-13T10:42:58.514Z,3.80
2023-03-13T10:45:26.972Z,3.70
2023-03-13T10:47:54.573Z,3.60
2023-03-13T10:50:22.241Z,2.30
2023-03-13T10:52:52.156Z,3.30
2023-03-13T10:55:19.705Z,2.90
2023-03-13T10:57:47.262Z,2.50
2023-03-13T11:00:14.851Z,3.20
2023-03-13T11:02:42.857Z,2.70
2023-03-13T11:05:13.467Z,2.60
2023-03-13T11:07:41.168Z,3.10
2023-03-13T11:10:08.766Z,4.60
2023-03-13T11:12:36.288Z,2.30
2023-03-13T11:15:06.078Z,2.90
2023-03-13T11:17:34.148Z,3.60
2023-03-13T11:20:01.809Z,4.20
2023-03-13T11:22:30.468Z,4.10
2023-03-13T11:24:59.250Z,3.90
2023-03-13T11:27:27.394Z,3.30
2023-03-13T11:29:55.285Z,2.50
2023-03-13T11:32:23.118Z,3.10
2023-03-13T11:34:50.894Z,2.60
2023-03-13T11:37:19.604Z,2.40
2023-03-13T11:39:47.644Z,3.90
2023-03-13T11:42:15.334Z,3.50
2023-03-13T11:44:42.978Z,5.40
2023-03-13T11:47:10.619Z,4.90
2023-03-13T11:49:40.481Z,3.90
2023-03-13T11:52:08.900Z,3.80
2023-03-13T11:54:36.722Z,1.70
2023-03-13T11:57:04.479Z,2.20
2023-03-13T11:59:32.148Z,3.80
2023-03-13T12:01:59.740Z,2.00
2023-03-13T12:04:27.374Z,4.30
2023-03-13T12:06:56.079Z,3.40
2023-03-13T12:09:28.215Z,2.30
2023-03-13T12:11:59.682Z,2.30
2023-03-13T12:14:27.468Z,3.00
2023-03-13T12:16:55.135Z,3.80
2023-03-13T12:19:22.876Z,2.50
2023-03-13T12:21:53.485Z,2.30
2023-03-13T12:24:22.533Z,2.40
2023-03-13T12:26:50.392Z,2.80
2023-03-13T12:29:18.007Z,3.80
2023-03-13T12:31:45.634Z,4.20
2023-03-13T12:34:13.774Z,2.30
2023-03-13T12:36:41.479Z,3.60
2023-03-13T12:39:09.840Z,4.60
2023-03-13T12:41:42.005Z,3.20
2023-03-13T12:44:09.774Z,1.40
2023-03-13T12:46:38.282Z,2.10
2023-03-13T12:49:06.659Z,5.50
2023-03-13T12:51:34.300Z,3.20
2023-03-13T12:54:02.098Z,2.30
2023-03-13T12:56:29.908Z,1.80
2023-03-13T12:58:57.588Z,5.60
2023-03-13T13:01:25.393Z,3.00
2023-03-13T13:03:53.379Z,3.50
2023-03-13T13:06:21.427Z,2.50
2023-03-13T13:08:49.192Z,4.90
2023-03-13T13:11:16.778Z,3.40
2023-03-13T13:13:44.445Z,3.70
2023-03-13T13:16:12.118Z,4.80
2023-03-13T13:18:40.138Z,3.00
2023-03-13T13:21:08.404Z,2.80
2023-03-13T13:23:38.142Z,3.10
2023-03-13T13:26:05.934Z,3.70
2023-03-13T13:28:33.515Z,3.20
2023-03-13T13:31:01.342Z,4.90
2023-03-13T13:33:30.927Z,4.90
2023-03-13T13:35:58.619Z,3.80
2023-03-13T13:38:26.187Z,3.20
2023-03-13T13:40:53.778Z,4.70
2023-03-13T13:43:21.393Z,4.50
2023-03-13T13:45:49.285Z,3.60
2023-03-13T13:48:16.987Z,3.50
2023-03-13T13:50:45.748Z,4.00
2023-03-13T13:53:13.556Z,3.00
2023-03-13T13:55:41.614Z,4.10
2023-03-13T13:58:11.627Z,3.50
2023-03-13T14:00:40.886Z,3.30
2023-03-13T14:03:08.827Z,3.80
2023-03-13T14:05:36.355Z,3.30
2023-03-13T14:08:05.212Z,4.30
2023-03-13T14:10:33.055Z,5.10
2023-03-13T14:13:01.843Z,4.30
2023-03-13T14:15:29.465Z,5.40
2023-03-13T14:17:57.176Z,4.50
2023-03-13T14:20:24.820Z,4.40
2023-03-13T14:22:53.788Z,5.00
2023-03-13T14:25:21.633Z,5.00
2023-03-13T14:27:51.346Z,4.90
2023-03-13T14:30:19.015Z,4.20
2023-03-13T14:32:48.541Z,4.30
2023-03-13T14:35:16.374Z,4.60
2023-03-13T14:37:44.171Z,5.10
2023-03-13T14:40:11.858Z,6.10
2023-03-13T14:42:39.523Z,6.80
2023-03-13T14:45:07.636Z,10.80
2023-03-13T14:47:35.764Z,12.50
2023-03-13T14:50:04.511Z,11.00
2023-03-13T14:52:33.017Z,9.40
2023-03-13T14:55:04.591Z,10.80
2023-03-13T14:57:32.275Z,11.30
2023-03-13T15:00:00.054Z,10.00
2023-03-13T15:02:27.957Z,10.50
2023-03-13T15:04:56.273Z,9.40
2023-03-13T15:07:27.028Z,6.80
2023-03-13T15:09:54.755Z,9.00
2023-03-13T15:12:22.460Z,8.20
2023-03-13T15:14:51.560Z,8.70
2023-03-13T15:17:19.328Z,8.70
2023-03-13T15:19:49.413Z,7.50
2023-03-13T15:22:17.121Z,6.80
2023-03-13T15:24:56.173Z,7.50
2023-03-13T15:27:32.365Z,5.90
2023-03-13T15:30:00.131Z,4.90
2023-03-13T15:32:28.144Z,6.50
2023-03-13T15:34:58.706Z,6.40
2023-03-13T15:37:26.288Z,6.80
2023-03-13T15:39:54.032Z,4.10
2023-03-13T15:42:21.877Z,6.70
2023-03-13T15:44:49.715Z,7.10
2023-03-13T15:47:17.340Z,6.60
2023-03-13T15:49:45.826Z,6.70
2023-03-13T15:52:13.555Z,7.50
2023-03-13T15:54:41.133Z,6.20
2023-03-13T15:57:09.727Z,6.30
2023-03-13T15:59:37.352Z,4.10
2023-03-13T16:02:05.110Z,5.20
2023-03-13T16:04:36.209Z,5.40
2023-03-13T16:07:03.908Z,6.20
2023-03-13T16:09:34.044Z,5.30
2023-03-13T16:12:01.704Z,6.40
2023-03-13T16:14:29.427Z,5.00
2023-03-13T16:16:57.216Z,6.50
2023-03-13T16:19:24.796Z,5.70
2023-03-13T16:21:54.481Z,6.50
2023-03-13T16:24:24.509Z,9.30
2023-03-13T16:26:52.110Z,11.10
2023-03-13T16:29:19.919Z,12.10
2023-03-13T16:31:47.613Z,12.30
2023-03-13T16:34:15.148Z,13.80
2023-03-13T16:36:42.956Z,11.40
2023-03-13T16:39:13.533Z,14.10
2023-03-13T16:41:41.230Z,11.50
2023-03-13T16:44:09.135Z,9.00
2023-03-13T16:46:37.043Z,9.30
2023-03-13T16:49:04.979Z,10.10
2023-03-13T16:51:32.844Z,9.90
2023-03-13T16:54:02.112Z,8.90
2023-03-13T16:56:29.955Z,9.20
2023-03-13T16:58:58.673Z,8.60
2023-03-13T17:01:26.395Z,8.30
2023-03-13T17:03:54.726Z,7.50
2023-03-13T17:06:22.562Z,6.40
2023-03-13T17:08:50.218Z,7.50
2023-03-13T17:11:19.251Z,7.30
2023-03-13T17:13:47.146Z,6.60
2023-03-13T17:16:15.328Z,6.20
2023-03-13T17:18:43.005Z,8.10
2023-03-13T17:21:11.245Z,8.30
2023-03-13T17:23:39.039Z,10.50
2023-03-13T17:26:06.620Z,9.50
2023-03-13T17:28:34.507Z,9.80
2023-03-13T17:31:03.558Z,13.40
2023-03-13T17:33:31.224Z,12.20
2023-03-13T17:35:58.953Z,21.00
2023-03-13T17:38:26.469Z,14.70
2023-03-13T17:40:54.537Z,13.70
2023-03-13T17:43:22.678Z,12.70
2023-03-13T17:45:50.429Z,14.40
2023-03-13T17:48:18.150Z,16.50
2023-03-13T17:50:47.012Z,16.60
2023-03-13T17:53:14.915Z,21.10
2023-03-13T17:55:42.896Z,20.80
2023-03-13T17:58:11.845Z,14.70
2023-03-13T18:00:44.978Z,17.90
2023-03-13T18:03:12.996Z,14.40
2023-03-13T18:05:42.445Z,20.00
2023-03-13T18:08:10.405Z,18.90
2023-03-13T18:10:38.340Z,15.20
2023-03-13T18:13:06.221Z,20.50
2023-03-13T18:15:34.281Z,13.00
2023-03-13T18:18:02.174Z,17.60
2023-03-13T18:20:29.688Z,22.80
2023-03-13T18:23:00.398Z,16.30
2023-03-13T18:25:28.580Z,11.50
2023-03-13T18:27:56.103Z,11.30
2023-03-13T18:30:23.644Z,12.20
2023-03-13T18:32:51.230Z,11.80
2023-03-13T18:35:19.293Z,8.10
2023-03-13T18:37:47.378Z,12.20
2023-03-13T18:40:15.810Z,12.20
2023-03-13T18:42:43.690Z,12.60
2023-03-13T18:45:14.582Z,13.80
2023-03-13T18:47:45.016Z,13.10
2023-03-13T18:50:13.413Z,17.30
2023-03-13T18:52:41.364Z,13.40
2023-03-13T18:55:09.484Z,16.20
2023-03-13T18:57:39.893Z,16.70
2023-03-13T19:00:07.495Z,15.00
2023-03-13T19:02:35.540Z,17.00
2023-03-13T19:05:03.734Z,20.50
2023-03-13T19:07:33.049Z,20.40
2023-03-13T19:10:02.073Z,23.80
2023-03-13T19:12:29.842Z,24.50
2023-03-13T19:14:59.544Z,24.50
2023-03-13T19:17:29.824Z,26.30
2023-03-13T19:19:57.507Z,21.80
2023-03-13T19:22:25.166Z,21.20
2023-03-13T19:24:52.757Z,19.50
2023-03-13T19:27:20.435Z,18.20
2023-03-13T19:29:48.045Z,18.60
2023-03-13T19:32:16.124Z,23.70
2023-03-13T19:34:43.875Z,24.90
2023-03-13T19:37:11.566Z,23.90
2023-03-13T19:39:39.367Z,22.40
2023-03-13T19:42:08.323Z,21.10
2023-03-13T19:44:36.029Z,24.00
2023-03-13T19:47:03.610Z,20.80
2023-03-13T19:49:31.493Z,26.40
2023-03-13T19:52:00.226Z,29.00
2023-03-13T19:54:27.903Z,21.70
2023-03-13T19:56:55.414Z,25.40
2023-03-13T19:59:24.598Z,30.40
2023-03-13T20:01:52.176Z,28.30
2023-03-13T20:04:19.963Z,27.60
2023-03-13T20:06:47.471Z,27.30
2023-03-13T20:09:15.242Z,32.40
2023-03-13T20:11:42.971Z,24.90
2023-03-13T20:14:10.547Z,36.10
2023-03-13T20:16:38.228Z,40.50
2023-03-13T20:19:05.855Z,32.80
2023-03-13T20:21:33.402Z,39.70
2023-03-13T20:24:01.132Z,52.40
2023-03-13T20:26:28.721Z,45.40
2023-03-13T20:28:56.480Z,70.50
2023-03-13T20:31:27.162Z,58.20
2023-03-13T20:33:54.800Z,62.30
2023-03-13T20:36:22.361Z,69.50
2023-03-13T20:38:49.959Z,58.00
2023-03-13T20:41:19.287Z,51.10
2023-03-13T20:43:46.968Z,39.00
2023-03-13T20:46:14.654Z,37.50
2023-03-13T20:48:42.789Z,41.30
2023-03-13T20:51:10.410Z,37.90
2023-03-13T20:53:38.153Z,23.50
2023-03-13T20:56:07.046Z,29.40
2023-03-13T20:58:34.966Z,31.50
2023-03-13T21:01:02.650Z,33.90
2023-03-13T21:03:35.056Z,24.30
2023-03-13T21:06:04.744Z,25.20
2023-03-13T21:08:32.267Z,16.90
2023-03-13T21:10:59.888Z,18.30
2023-03-13T21:13:27.652Z,23.70
2023-03-13T21:15:55.278Z,29.70
2023-03-13T21:18:22.894Z,24.30
2023-03-13T21:20:50.563Z,17.80
2023-03-13T21:23:18.105Z,20.10
2023-03-13T21:25:45.563Z,18.50
2023-03-13T21:28:13.215Z,17.60
2023-03-13T21:30:41.556Z,26.40
2023-03-13T21:33:09.404Z,21.90
2023-03-13T21:35:36.969Z,23.60
2023-03-13T21:38:04.654Z,27.80
2023-03-13T21:40:32.151Z,25.40
2023-03-13T21:42:59.753Z,20.90
2023-03-13T21:45:27.439Z,28.30
2023-03-13T21:47:56.500Z,45.30
2023-03-13T21:50:24.986Z,33.80
2023-03-13T21:52:52.729Z,23.50
2023-03-13T21:55:20.388Z,22.20
2023-03-13T21:57:47.873Z,31.70
2023-03-13T22:00:16.004Z,29.20
2023-03-13T22:02:44.802Z,29.80
2023-03-13T22:05:13.390Z,30.10
2023-03-13T22:07:41.051Z,24.60
2023-03-13T22:10:08.577Z,19.50
2023-03-13T22:12:37.685Z,18.70
2023-03-13T22:15:05.379Z,20.60
2023-03-13T22:17:32.911Z,19.40
2023-03-13T22:20:00.369Z,20.00
2023-03-13T22:22:27.913Z,27.20
2023-03-13T22:24:55.463Z,25.00
2023-03-13T22:27:24.279Z,27.70
2023-03-13T22:29:51.943Z,33.40
2023-03-13T22:32:19.506Z,30.80
2023-03-13T22:34:48.172Z,21.60
2023-03-13T22:37:15.854Z,19.60
2023-03-13T22:39:43.321Z,30.10
2023-03-13T22:42:10.783Z,35.70
2023-03-13T22:44:38.617Z,31.70
2023-03-13T22:47:06.186Z,36.30
2023-03-13T22:49:33.717Z,32.80
2023-03-13T22:52:04.766Z,33.10
2023-03-13T22:54:32.389Z,49.90
2023-03-13T22:57:00.150Z,55.50
2023-03-13T22:59:27.758Z,73.40
2023-03-13T23:01:55.238Z,69.30
2023-03-13T23:04:22.839Z,71.90
2023-03-13T23:06:50.502Z,74.10
2023-03-13T23:09:18.076Z,77.10
2023-03-13T23:11:45.635Z,63.00
2023-03-13T23:14:13.761Z,61.30
2023-03-13T23:16:41.427Z,75.10
2023-03-13T23:19:09.038Z,76.80
2023-03-13T23:21:36.691Z,71.90
2023-03-13T23:24:04.171Z,69.10
2023-03-13T23:26:31.792Z,55.00
2023-03-13T23:28:59.392Z,44.50
2023-03-13T23:31:26.912Z,30.20
2023-03-13T23:33:56.603Z,29.20
2023-03-13T23:36:24.204Z,34.40
2023-03-13T23:38:52.837Z,38.80
2023-03-13T23:41:20.446Z,52.50
2023-03-13T23:43:47.946Z,49.90
2023-03-13T23:46:15.481Z,43.10
2023-03-13T23:48:43.121Z,41.00
2023-03-13T23:51:10.670Z,38.50
2023-03-13T23:53:38.403Z,30.90
2023-03-13T23:56:06.081Z,28.00
2023-03-13T23:58:33.610Z,40.10
